sensor_id;sensor_type;location;lat;lon;timestamp;pressure;altitude;pressure_sealevel;temperature
7882;BMP180;3986;41.884;23.466;2022-09-29T00:00:47;91370.00;;;12.00
7882;BMP180;3986;41.884;23.466;2022-09-29T00:03:14;91270.00;;;11.90
7882;BMP180;3986;41.884;23.466;2022-09-29T00:05:46;91372.00;;;11.60
7882;BMP180;3986;41.884;23.466;2022-09-29T00:08:14;91385.00;;;11.50
7882;BMP180;3986;41.884;23.466;2022-09-29T00:10:41;91371.00;;;11.70
7882;BMP180;3986;41.884;23.466;2022-09-29T00:13:09;91365.00;;;12.00
7882;BMP180;3986;41.884;23.466;2022-09-29T00:15:36;91351.00;;;12.30
7882;BMP180;3986;41.884;23.466;2022-09-29T00:18:03;91361.00;;;11.70
7882;BMP180;3986;41.884;23.466;2022-09-29T00:20:30;91363.00;;;11.50
7882;BMP180;3986;41.884;23.466;2022-09-29T00:22:57;91351.00;;;11.50
7882;BMP180;3986;41.884;23.466;2022-09-29T00:25:23;91359.00;;;11.40
7882;BMP180;3986;41.884;23.466;2022-09-29T00:27:50;91349.00;;;11.80
7882;BMP180;3986;41.884;23.466;2022-09-29T00:30:18;91361.00;;;11.30
7882;BMP180;3986;41.884;23.466;2022-09-29T00:32:45;91345.00;;;11.10
7882;BMP180;3986;41.884;23.466;2022-09-29T00:35:12;91340.00;;;11.60
7882;BMP180;3986;41.884;23.466;2022-09-29T00:37:42;91334.00;;;12.00
7882;BMP180;3986;41.884;23.466;2022-09-29T00:40:09;91340.00;;;12.20
7882;BMP180;3986;41.884;23.466;2022-09-29T00:42:36;91345.00;;;12.20
7882;BMP180;3986;41.884;23.466;2022-09-29T00:45:17;91344.00;;;12.30
7882;BMP180;3986;41.884;23.466;2022-09-29T00:47:49;91338.00;;;12.30
7882;BMP180;3986;41.884;23.466;2022-09-29T00:50:21;91342.00;;;12.00
7882;BMP180;3986;41.884;23.466;2022-09-29T00:52:50;91340.00;;;11.60
7882;BMP180;3986;41.884;23.466;2022-09-29T00:55:22;91363.00;;;11.90
7882;BMP180;3986;41.884;23.466;2022-09-29T00:57:55;91340.00;;;11.50
7882;BMP180;3986;41.884;23.466;2022-09-29T01:00:23;91342.00;;;11.10
7882;BMP180;3986;41.884;23.466;2022-09-29T01:02:54;91353.00;;;10.90
7882;BMP180;3986;41.884;23.466;2022-09-29T01:05:26;91364.00;;;11.20
7882;BMP180;3986;41.884;23.466;2022-09-29T01:07:55;91362.00;;;11.50
7882;BMP180;3986;41.884;23.466;2022-09-29T01:10:22;91359.00;;;11.30
7882;BMP180;3986;41.884;23.466;2022-09-29T01:12:49;91357.00;;;11.60
7882;BMP180;3986;41.884;23.466;2022-09-29T01:15:17;91319.00;;;11.80
7882;BMP180;3986;41.884;23.466;2022-09-29T01:17:45;91352.00;;;11.80
7882;BMP180;3986;41.884;23.466;2022-09-29T01:20:16;91352.00;;;11.60
7882;BMP180;3986;41.884;23.466;2022-09-29T01:26:12;91345.00;;;10.60
7882;BMP180;3986;41.884;23.466;2022-09-29T01:29:04;91346.00;;;11.20
7882;BMP180;3986;41.884;23.466;2022-09-29T01:31:42;91361.00;;;11.30
7882;BMP180;3986;41.884;23.466;2022-09-29T01:34:17;91351.00;;;11.20
7882;BMP180;3986;41.884;23.466;2022-09-29T01:36:55;91357.00;;;10.90
7882;BMP180;3986;41.884;23.466;2022-09-29T01:39:30;91309.00;;;11.30
7882;BMP180;3986;41.884;23.466;2022-09-29T01:42:02;91370.00;;;11.20
7882;BMP180;3986;41.884;23.466;2022-09-29T01:44:33;91361.00;;;11.40
7882;BMP180;3986;41.884;23.466;2022-09-29T01:47:07;91367.00;;;11.30
7882;BMP180;3986;41.884;23.466;2022-09-29T01:49:38;91370.00;;;11.20
7882;BMP180;3986;41.884;23.466;2022-09-29T01:52:07;91364.00;;;11.50
7882;BMP180;3986;41.884;23.466;2022-09-29T01:54:42;91361.00;;;10.90
7882;BMP180;3986;41.884;23.466;2022-09-29T01:57:13;91360.00;;;10.10
7882;BMP180;3986;41.884;23.466;2022-09-29T01:59:44;91360.00;;;10.20
7882;BMP180;3986;41.884;23.466;2022-09-29T02:02:17;91351.00;;;10.80
7882;BMP180;3986;41.884;23.466;2022-09-29T02:04:49;91350.00;;;10.90
7882;BMP180;3986;41.884;23.466;2022-09-29T02:07:22;91352.00;;;10.90
7882;BMP180;3986;41.884;23.466;2022-09-29T02:09:53;91371.00;;;10.00
7882;BMP180;3986;41.884;23.466;2022-09-29T02:12:24;91357.00;;;10.40
7882;BMP180;3986;41.884;23.466;2022-09-29T02:14:52;91366.00;;;10.80
7882;BMP180;3986;41.884;23.466;2022-09-29T02:17:23;91375.00;;;10.50
7882;BMP180;3986;41.884;23.466;2022-09-29T02:19:52;91283.00;;;10.50
7882;BMP180;3986;41.884;23.466;2022-09-29T02:22:19;91360.00;;;10.20
7882;BMP180;3986;41.884;23.466;2022-09-29T02:24:47;91370.00;;;10.80
7882;BMP180;3986;41.884;23.466;2022-09-29T02:27:15;91366.00;;;10.80
7882;BMP180;3986;41.884;23.466;2022-09-29T02:29:43;91348.00;;;10.20
7882;BMP180;3986;41.884;23.466;2022-09-29T02:32:10;91351.00;;;10.50
7882;BMP180;3986;41.884;23.466;2022-09-29T02:34:40;91350.00;;;10.50
7882;BMP180;3986;41.884;23.466;2022-09-29T02:37:20;91280.00;;;10.40
7882;BMP180;3986;41.884;23.466;2022-09-29T02:39:55;91371.00;;;10.40
7882;BMP180;3986;41.884;23.466;2022-09-29T02:42:28;91370.00;;;9.90
7882;BMP180;3986;41.884;23.466;2022-09-29T02:45:09;91366.00;;;10.00
7882;BMP180;3986;41.884;23.466;2022-09-29T02:47:55;91375.00;;;10.40
7882;BMP180;3986;41.884;23.466;2022-09-29T02:50:47;91361.00;;;10.50
7882;BMP180;3986;41.884;23.466;2022-09-29T02:53:24;91361.00;;;10.70
7882;BMP180;3986;41.884;23.466;2022-09-29T02:55:56;91360.00;;;10.90
7882;BMP180;3986;41.884;23.466;2022-09-29T02:58:27;91252.00;;;10.80
7882;BMP180;3986;41.884;23.466;2022-09-29T03:00:57;91359.00;;;10.40
7882;BMP180;3986;41.884;23.466;2022-09-29T03:03:24;91213.00;;;10.60
7882;BMP180;3986;41.884;23.466;2022-09-29T03:05:52;91369.00;;;10.40
7882;BMP180;3986;41.884;23.466;2022-09-29T03:08:19;91378.00;;;9.90
7882;BMP180;3986;41.884;23.466;2022-09-29T03:10:46;91360.00;;;10.00
7882;BMP180;3986;41.884;23.466;2022-09-29T03:13:13;91363.00;;;10.30
7882;BMP180;3986;41.884;23.466;2022-09-29T03:15:39;91361.00;;;10.20
7882;BMP180;3986;41.884;23.466;2022-09-29T03:18:06;91381.00;;;10.30
7882;BMP180;3986;41.884;23.466;2022-09-29T03:20:33;91382.00;;;9.70
7882;BMP180;3986;41.884;23.466;2022-09-29T03:23:01;91378.00;;;9.90
7882;BMP180;3986;41.884;23.466;2022-09-29T03:25:28;91390.00;;;9.50
7882;BMP180;3986;41.884;23.466;2022-09-29T03:27:55;91386.00;;;9.80
7882;BMP180;3986;41.884;23.466;2022-09-29T03:30:22;91388.00;;;9.50
7882;BMP180;3986;41.884;23.466;2022-09-29T03:32:49;91381.00;;;9.60
7882;BMP180;3986;41.884;23.466;2022-09-29T03:35:16;91387.00;;;9.40
7882;BMP180;3986;41.884;23.466;2022-09-29T03:37:43;91375.00;;;9.40
7882;BMP180;3986;41.884;23.466;2022-09-29T03:40:11;91383.00;;;9.40
7882;BMP180;3986;41.884;23.466;2022-09-29T03:42:38;91395.00;;;9.90
7882;BMP180;3986;41.884;23.466;2022-09-29T03:45:06;91392.00;;;10.20
7882;BMP180;3986;41.884;23.466;2022-09-29T03:47:33;91408.00;;;9.40
7882;BMP180;3986;41.884;23.466;2022-09-29T03:49:59;91394.00;;;9.80
7882;BMP180;3986;41.884;23.466;2022-09-29T03:52:26;91395.00;;;10.00
7882;BMP180;3986;41.884;23.466;2022-09-29T03:54:53;91382.00;;;10.30
7882;BMP180;3986;41.884;23.466;2022-09-29T03:57:21;91353.00;;;10.20
7882;BMP180;3986;41.884;23.466;2022-09-29T03:59:48;91381.00;;;9.90
7882;BMP180;3986;41.884;23.466;2022-09-29T04:02:15;91383.00;;;10.20
7882;BMP180;3986;41.884;23.466;2022-09-29T04:04:44;91404.00;;;9.10
7882;BMP180;3986;41.884;23.466;2022-09-29T04:07:11;91391.00;;;9.30
7882;BMP180;3986;41.884;23.466;2022-09-29T04:09:38;91391.00;;;9.40
7882;BMP180;3986;41.884;23.466;2022-09-29T04:12:05;91393.00;;;10.10
7882;BMP180;3986;41.884;23.466;2022-09-29T04:14:33;91390.00;;;10.30
7882;BMP180;3986;41.884;23.466;2022-09-29T04:16:59;91397.00;;;10.20
7882;BMP180;3986;41.884;23.466;2022-09-29T04:19:26;91392.00;;;9.80
7882;BMP180;3986;41.884;23.466;2022-09-29T04:21:53;91381.00;;;10.10
7882;BMP180;3986;41.884;23.466;2022-09-29T04:24:21;91391.00;;;10.20
7882;BMP180;3986;41.884;23.466;2022-09-29T04:26:48;91397.00;;;9.50
7882;BMP180;3986;41.884;23.466;2022-09-29T04:29:15;91389.00;;;10.10
7882;BMP180;3986;41.884;23.466;2022-09-29T04:31:43;91406.00;;;9.70
7882;BMP180;3986;41.884;23.466;2022-09-29T04:34:10;91406.00;;;9.60
7882;BMP180;3986;41.884;23.466;2022-09-29T04:36:36;91397.00;;;9.90
7882;BMP180;3986;41.884;23.466;2022-09-29T04:39:03;91287.00;;;10.10
7882;BMP180;3986;41.884;23.466;2022-09-29T04:41:31;91399.00;;;10.40
7882;BMP180;3986;41.884;23.466;2022-09-29T04:44:00;91400.00;;;10.20
7882;BMP180;3986;41.884;23.466;2022-09-29T04:46:28;91385.00;;;10.20
7882;BMP180;3986;41.884;23.466;2022-09-29T04:48:56;91405.00;;;9.80
7882;BMP180;3986;41.884;23.466;2022-09-29T04:51:23;91395.00;;;9.70
7882;BMP180;3986;41.884;23.466;2022-09-29T04:53:49;91395.00;;;10.00
7882;BMP180;3986;41.884;23.466;2022-09-29T04:56:18;91387.00;;;10.10
7882;BMP180;3986;41.884;23.466;2022-09-29T04:58:45;91396.00;;;10.40
7882;BMP180;3986;41.884;23.466;2022-09-29T05:01:11;91385.00;;;9.90
7882;BMP180;3986;41.884;23.466;2022-09-29T05:03:39;91351.00;;;10.50
7882;BMP180;3986;41.884;23.466;2022-09-29T05:06:07;91389.00;;;10.20
7882;BMP180;3986;41.884;23.466;2022-09-29T05:08:34;91397.00;;;9.90
7882;BMP180;3986;41.884;23.466;2022-09-29T05:11:03;91385.00;;;10.60
7882;BMP180;3986;41.884;23.466;2022-09-29T05:13:31;91402.00;;;10.40
7882;BMP180;3986;41.884;23.466;2022-09-29T05:15:58;91410.00;;;10.20
7882;BMP180;3986;41.884;23.466;2022-09-29T05:18:25;91404.00;;;10.90
7882;BMP180;3986;41.884;23.466;2022-09-29T05:20:52;91399.00;;;10.70
7882;BMP180;3986;41.884;23.466;2022-09-29T05:23:20;91408.00;;;10.40
7882;BMP180;3986;41.884;23.466;2022-09-29T05:25:47;91400.00;;;10.80
7882;BMP180;3986;41.884;23.466;2022-09-29T05:28:14;91403.00;;;11.00
7882;BMP180;3986;41.884;23.466;2022-09-29T05:30:41;91404.00;;;11.00
7882;BMP180;3986;41.884;23.466;2022-09-29T05:33:08;91408.00;;;10.70
7882;BMP180;3986;41.884;23.466;2022-09-29T05:35:35;91407.00;;;10.60
7882;BMP180;3986;41.884;23.466;2022-09-29T05:38:02;91401.00;;;10.90
7882;BMP180;3986;41.884;23.466;2022-09-29T05:40:30;91406.00;;;11.00
7882;BMP180;3986;41.884;23.466;2022-09-29T05:42:57;91373.00;;;11.40
7882;BMP180;3986;41.884;23.466;2022-09-29T05:45:25;91408.00;;;10.60
7882;BMP180;3986;41.884;23.466;2022-09-29T05:47:52;91411.00;;;11.00
7882;BMP180;3986;41.884;23.466;2022-09-29T05:50:19;91437.00;;;9.90
7882;BMP180;3986;41.884;23.466;2022-09-29T05:52:47;91421.00;;;10.10
7882;BMP180;3986;41.884;23.466;2022-09-29T05:55:14;91415.00;;;11.00
7882;BMP180;3986;41.884;23.466;2022-09-29T05:57:46;91413.00;;;11.30
7882;BMP180;3986;41.884;23.466;2022-09-29T06:00:13;91407.00;;;11.50
7882;BMP180;3986;41.884;23.466;2022-09-29T06:02:40;91408.00;;;12.10
7882;BMP180;3986;41.884;23.466;2022-09-29T06:05:07;91401.00;;;12.30
7882;BMP180;3986;41.884;23.466;2022-09-29T06:07:34;91409.00;;;12.60
7882;BMP180;3986;41.884;23.466;2022-09-29T06:10:01;91376.00;;;12.60
7882;BMP180;3986;41.884;23.466;2022-09-29T06:12:33;91414.00;;;12.60
7882;BMP180;3986;41.884;23.466;2022-09-29T06:15:02;91413.00;;;12.50
7882;BMP180;3986;41.884;23.466;2022-09-29T06:17:28;91417.00;;;12.50
7882;BMP180;3986;41.884;23.466;2022-09-29T06:19:55;91402.00;;;12.50
7882;BMP180;3986;41.884;23.466;2022-09-29T06:22:22;91406.00;;;12.90
7882;BMP180;3986;41.884;23.466;2022-09-29T06:24:49;91421.00;;;13.60
7882;BMP180;3986;41.884;23.466;2022-09-29T06:27:16;91421.00;;;13.70
7882;BMP180;3986;41.884;23.466;2022-09-29T06:29:43;91409.00;;;13.40
7882;BMP180;3986;41.884;23.466;2022-09-29T06:32:11;91412.00;;;13.80
7882;BMP180;3986;41.884;23.466;2022-09-29T06:34:38;91406.00;;;13.80
7882;BMP180;3986;41.884;23.466;2022-09-29T06:37:25;91416.00;;;13.80
7882;BMP180;3986;41.884;23.466;2022-09-29T06:40:00;91401.00;;;14.30
7882;BMP180;3986;41.884;23.466;2022-09-29T06:42:27;91420.00;;;14.70
7882;BMP180;3986;41.884;23.466;2022-09-29T06:44:54;91439.00;;;14.50
7882;BMP180;3986;41.884;23.466;2022-09-29T06:47:22;91429.00;;;14.90
7882;BMP180;3986;41.884;23.466;2022-09-29T06:49:49;91435.00;;;14.90
7882;BMP180;3986;41.884;23.466;2022-09-29T06:52:16;91415.00;;;14.80
7882;BMP180;3986;41.884;23.466;2022-09-29T06:54:43;91436.00;;;14.70
7882;BMP180;3986;41.884;23.466;2022-09-29T06:57:10;91434.00;;;15.10
7882;BMP180;3986;41.884;23.466;2022-09-29T06:59:38;91434.00;;;15.60
7882;BMP180;3986;41.884;23.466;2022-09-29T07:02:05;91458.00;;;15.10
7882;BMP180;3986;41.884;23.466;2022-09-29T07:04:33;91413.00;;;14.80
7882;BMP180;3986;41.884;23.466;2022-09-29T07:07:00;91433.00;;;14.90
7882;BMP180;3986;41.884;23.466;2022-09-29T07:09:27;91437.00;;;14.70
7882;BMP180;3986;41.884;23.466;2022-09-29T07:11:54;91439.00;;;14.70
7882;BMP180;3986;41.884;23.466;2022-09-29T07:14:22;91437.00;;;14.60
7882;BMP180;3986;41.884;23.466;2022-09-29T07:16:50;91446.00;;;14.50
7882;BMP180;3986;41.884;23.466;2022-09-29T07:19:18;91408.00;;;14.80
7882;BMP180;3986;41.884;23.466;2022-09-29T07:21:48;91447.00;;;15.10
7882;BMP180;3986;41.884;23.466;2022-09-29T07:24:15;91447.00;;;15.80
7882;BMP180;3986;41.884;23.466;2022-09-29T07:26:42;91418.00;;;16.20
7882;BMP180;3986;41.884;23.466;2022-09-29T07:29:10;91443.00;;;16.60
7882;BMP180;3986;41.884;23.466;2022-09-29T07:31:38;91432.00;;;16.70
7882;BMP180;3986;41.884;23.466;2022-09-29T07:34:05;91431.00;;;17.10
7882;BMP180;3986;41.884;23.466;2022-09-29T07:36:31;91427.00;;;16.80
7882;BMP180;3986;41.884;23.466;2022-09-29T07:39:00;91433.00;;;16.60
7882;BMP180;3986;41.884;23.466;2022-09-29T07:41:27;91442.00;;;17.50
7882;BMP180;3986;41.884;23.466;2022-09-29T07:43:54;91437.00;;;18.00
7882;BMP180;3986;41.884;23.466;2022-09-29T07:46:20;91436.00;;;18.10
7882;BMP180;3986;41.884;23.466;2022-09-29T07:48:47;91446.00;;;18.50
7882;BMP180;3986;41.884;23.466;2022-09-29T07:51:16;91443.00;;;19.10
7882;BMP180;3986;41.884;23.466;2022-09-29T07:53:43;91445.00;;;18.10
7882;BMP180;3986;41.884;23.466;2022-09-29T07:56:13;91438.00;;;19.20
7882;BMP180;3986;41.884;23.466;2022-09-29T07:58:41;91445.00;;;18.60
7882;BMP180;3986;41.884;23.466;2022-09-29T08:01:09;91453.00;;;18.90
7882;BMP180;3986;41.884;23.466;2022-09-29T08:03:37;91465.00;;;19.50
7882;BMP180;3986;41.884;23.466;2022-09-29T08:06:04;91451.00;;;20.40
7882;BMP180;3986;41.884;23.466;2022-09-29T08:08:33;91340.00;;;20.60
7882;BMP180;3986;41.884;23.466;2022-09-29T08:11:02;91453.00;;;20.70
7882;BMP180;3986;41.884;23.466;2022-09-29T08:13:30;91459.00;;;20.90
7882;BMP180;3986;41.884;23.466;2022-09-29T08:15:58;91463.00;;;20.30
7882;BMP180;3986;41.884;23.466;2022-09-29T08:18:25;91483.00;;;19.60
7882;BMP180;3986;41.884;23.466;2022-09-29T08:20:52;91462.00;;;20.60
7882;BMP180;3986;41.884;23.466;2022-09-29T08:23:19;91451.00;;;22.30
7882;BMP180;3986;41.884;23.466;2022-09-29T08:25:46;91460.00;;;21.50
7882;BMP180;3986;41.884;23.466;2022-09-29T08:28:13;91465.00;;;22.60
7882;BMP180;3986;41.884;23.466;2022-09-29T08:30:41;91483.00;;;24.60
7882;BMP180;3986;41.884;23.466;2022-09-29T08:33:08;91404.00;;;25.80
7882;BMP180;3986;41.884;23.466;2022-09-29T08:35:39;91463.00;;;25.30
7882;BMP180;3986;41.884;23.466;2022-09-29T08:38:06;91468.00;;;26.30
7882;BMP180;3986;41.884;23.466;2022-09-29T08:40:33;91435.00;;;24.50
7882;BMP180;3986;41.884;23.466;2022-09-29T08:43:09;91470.00;;;24.20
7882;BMP180;3986;41.884;23.466;2022-09-29T08:45:42;91472.00;;;24.10
7882;BMP180;3986;41.884;23.466;2022-09-29T08:48:12;91438.00;;;22.90
7882;BMP180;3986;41.884;23.466;2022-09-29T08:50:43;91465.00;;;23.60
7882;BMP180;3986;41.884;23.466;2022-09-29T08:53:16;91467.00;;;24.50
7882;BMP180;3986;41.884;23.466;2022-09-29T08:55:46;91468.00;;;25.70
7882;BMP180;3986;41.884;23.466;2022-09-29T08:58:14;91467.00;;;27.40
7882;BMP180;3986;41.884;23.466;2022-09-29T09:00:52;91467.00;;;30.30
7882;BMP180;3986;41.884;23.466;2022-09-29T09:06:43;91445.00;;;33.40
7882;BMP180;3986;41.884;23.466;2022-09-29T09:09:28;91486.00;;;34.90
7882;BMP180;3986;41.884;23.466;2022-09-29T09:12:15;91480.00;;;35.00
7882;BMP180;3986;41.884;23.466;2022-09-29T09:15:04;91446.00;;;33.30
7882;BMP180;3986;41.884;23.466;2022-09-29T09:17:55;91485.00;;;35.30
7882;BMP180;3986;41.884;23.466;2022-09-29T09:20:31;91484.00;;;36.70
7882;BMP180;3986;41.884;23.466;2022-09-29T09:23:00;91491.00;;;37.70
7882;BMP180;3986;41.884;23.466;2022-09-29T09:25:31;91488.00;;;37.10
7882;BMP180;3986;41.884;23.466;2022-09-29T09:28:04;91488.00;;;37.10
7882;BMP180;3986;41.884;23.466;2022-09-29T09:30:37;91484.00;;;38.80
7882;BMP180;3986;41.884;23.466;2022-09-29T09:33:15;91487.00;;;39.50
7882;BMP180;3986;41.884;23.466;2022-09-29T09:35:45;91492.00;;;39.40
7882;BMP180;3986;41.884;23.466;2022-09-29T09:38:16;91495.00;;;40.40
7882;BMP180;3986;41.884;23.466;2022-09-29T09:40:45;91498.00;;;37.60
7882;BMP180;3986;41.884;23.466;2022-09-29T09:43:17;91496.00;;;40.60
7882;BMP180;3986;41.884;23.466;2022-09-29T09:45:49;91500.00;;;38.80
7882;BMP180;3986;41.884;23.466;2022-09-29T09:48:22;91484.00;;;35.60
7882;BMP180;3986;41.884;23.466;2022-09-29T09:50:51;91485.00;;;37.50
7882;BMP180;3986;41.884;23.466;2022-09-29T09:53:21;91470.00;;;33.90
7882;BMP180;3986;41.884;23.466;2022-09-29T09:56:00;91442.00;;;34.10
7882;BMP180;3986;41.884;23.466;2022-09-29T09:58:35;91467.00;;;34.80
7882;BMP180;3986;41.884;23.466;2022-09-29T10:01:05;91400.00;;;36.60
7882;BMP180;3986;41.884;23.466;2022-09-29T10:03:36;91481.00;;;34.60
7882;BMP180;3986;41.884;23.466;2022-09-29T10:06:05;91487.00;;;37.30
7882;BMP180;3986;41.884;23.466;2022-09-29T10:08:34;91487.00;;;33.20
7882;BMP180;3986;41.884;23.466;2022-09-29T10:11:15;91481.00;;;32.20
7882;BMP180;3986;41.884;23.466;2022-09-29T10:13:49;91484.00;;;31.70
7882;BMP180;3986;41.884;23.466;2022-09-29T10:16:19;91476.00;;;36.90
7882;BMP180;3986;41.884;23.466;2022-09-29T10:18:50;91480.00;;;39.00
7882;BMP180;3986;41.884;23.466;2022-09-29T10:21:19;91473.00;;;38.60
7882;BMP180;3986;41.884;23.466;2022-09-29T10:23:50;91469.00;;;35.00
7882;BMP180;3986;41.884;23.466;2022-09-29T10:26:19;91485.00;;;39.00
7882;BMP180;3986;41.884;23.466;2022-09-29T10:28:53;91478.00;;;39.00
7882;BMP180;3986;41.884;23.466;2022-09-29T10:31:23;91479.00;;;37.80
7882;BMP180;3986;41.884;23.466;2022-09-29T10:33:55;91478.00;;;37.20
7882;BMP180;3986;41.884;23.466;2022-09-29T10:36:23;91471.00;;;40.30
7882;BMP180;3986;41.884;23.466;2022-09-29T10:38:51;91478.00;;;41.10
7882;BMP180;3986;41.884;23.466;2022-09-29T10:41:19;91479.00;;;38.20
7882;BMP180;3986;41.884;23.466;2022-09-29T10:43:47;91472.00;;;40.20
7882;BMP180;3986;41.884;23.466;2022-09-29T10:46:47;91474.00;;;40.40
7882;BMP180;3986;41.884;23.466;2022-09-29T10:49:19;91475.00;;;38.80
7882;BMP180;3986;41.884;23.466;2022-09-29T10:51:56;91471.00;;;37.40
7882;BMP180;3986;41.884;23.466;2022-09-29T10:54:24;91475.00;;;40.30
7882;BMP180;3986;41.884;23.466;2022-09-29T10:56:52;91467.00;;;42.10
7882;BMP180;3986;41.884;23.466;2022-09-29T10:59:20;91484.00;;;44.60
7882;BMP180;3986;41.884;23.466;2022-09-29T11:01:49;91475.00;;;36.60
7882;BMP180;3986;41.884;23.466;2022-09-29T11:04:22;91474.00;;;38.50
7882;BMP180;3986;41.884;23.466;2022-09-29T11:06:50;91468.00;;;40.20
7882;BMP180;3986;41.884;23.466;2022-09-29T11:09:35;91457.00;;;36.90
7882;BMP180;3986;41.884;23.466;2022-09-29T11:12:03;91458.00;;;39.10
7882;BMP180;3986;41.884;23.466;2022-09-29T11:14:38;91453.00;;;37.50
7882;BMP180;3986;41.884;23.466;2022-09-29T11:17:20;91457.00;;;34.10
7882;BMP180;3986;41.884;23.466;2022-09-29T11:19:48;91461.00;;;36.40
7882;BMP180;3986;41.884;23.466;2022-09-29T11:22:27;91463.00;;;35.90
7882;BMP180;3986;41.884;23.466;2022-09-29T11:25:17;91463.00;;;38.70
7882;BMP180;3986;41.884;23.466;2022-09-29T11:27:57;91457.00;;;37.00
7882;BMP180;3986;41.884;23.466;2022-09-29T11:30:31;91451.00;;;34.90
7882;BMP180;3986;41.884;23.466;2022-09-29T11:33:15;91456.00;;;30.60
7882;BMP180;3986;41.884;23.466;2022-09-29T11:35:53;91410.00;;;30.40
7882;BMP180;3986;41.884;23.466;2022-09-29T11:41:31;91441.00;;;25.30
7882;BMP180;3986;41.884;23.466;2022-09-29T11:44:13;91438.00;;;26.30
7882;BMP180;3986;41.884;23.466;2022-09-29T11:46:54;91434.00;;;26.80
7882;BMP180;3986;41.884;23.466;2022-09-29T11:49:40;91426.00;;;27.90
7882;BMP180;3986;41.884;23.466;2022-09-29T11:52:26;91437.00;;;26.80
7882;BMP180;3986;41.884;23.466;2022-09-29T11:55:12;91439.00;;;29.50
7882;BMP180;3986;41.884;23.466;2022-09-29T11:57:49;91405.00;;;29.40
7882;BMP180;3986;41.884;23.466;2022-09-29T12:00:20;91437.00;;;28.00
7882;BMP180;3986;41.884;23.466;2022-09-29T12:03:22;91444.00;;;25.40
7882;BMP180;3986;41.884;23.466;2022-09-29T12:06:04;91438.00;;;24.00
7882;BMP180;3986;41.884;23.466;2022-09-29T12:08:49;91432.00;;;24.90
7882;BMP180;3986;41.884;23.466;2022-09-29T12:11:26;91436.00;;;23.60
7882;BMP180;3986;41.884;23.466;2022-09-29T12:14:02;91436.00;;;24.10
7882;BMP180;3986;41.884;23.466;2022-09-29T12:16:34;91433.00;;;24.80
7882;BMP180;3986;41.884;23.466;2022-09-29T12:19:07;91430.00;;;24.20
7882;BMP180;3986;41.884;23.466;2022-09-29T12:21:38;91420.00;;;25.60
7882;BMP180;3986;41.884;23.466;2022-09-29T12:24:13;91395.00;;;25.00
7882;BMP180;3986;41.884;23.466;2022-09-29T12:26:42;91427.00;;;24.10
7882;BMP180;3986;41.884;23.466;2022-09-29T12:29:27;91432.00;;;23.80
7882;BMP180;3986;41.884;23.466;2022-09-29T12:31:58;91431.00;;;23.30
7882;BMP180;3986;41.884;23.466;2022-09-29T12:34:32;91435.00;;;23.00
7882;BMP180;3986;41.884;23.466;2022-09-29T12:37:05;91436.00;;;23.60
7882;BMP180;3986;41.884;23.466;2022-09-29T12:39:46;91431.00;;;24.50
7882;BMP180;3986;41.884;23.466;2022-09-29T12:45:24;91430.00;;;25.10
7882;BMP180;3986;41.884;23.466;2022-09-29T12:47:58;91428.00;;;25.20
7882;BMP180;3986;41.884;23.466;2022-09-29T12:50:30;91434.00;;;25.00
7882;BMP180;3986;41.884;23.466;2022-09-29T12:53:02;91436.00;;;23.70
7882;BMP180;3986;41.884;23.466;2022-09-29T12:55:40;91426.00;;;24.40
7882;BMP180;3986;41.884;23.466;2022-09-29T12:58:13;91430.00;;;24.20
7882;BMP180;3986;41.884;23.466;2022-09-29T13:00:43;91432.00;;;24.10
7882;BMP180;3986;41.884;23.466;2022-09-29T13:03:35;91407.00;;;24.20
7882;BMP180;3986;41.884;23.466;2022-09-29T13:06:32;91433.00;;;23.30
7882;BMP180;3986;41.884;23.466;2022-09-29T13:09:32;91430.00;;;23.40
7882;BMP180;3986;41.884;23.466;2022-09-29T13:12:19;91429.00;;;23.70
7882;BMP180;3986;41.884;23.466;2022-09-29T13:15:01;91428.00;;;23.90
7882;BMP180;3986;41.884;23.466;2022-09-29T13:17:46;91426.00;;;23.90
7882;BMP180;3986;41.884;23.466;2022-09-29T13:20:51;91435.00;;;24.30
7882;BMP180;3986;41.884;23.466;2022-09-29T13:23:35;91412.00;;;23.90
7882;BMP180;3986;41.884;23.466;2022-09-29T13:29:20;91432.00;;;23.20
7882;BMP180;3986;41.884;23.466;2022-09-29T13:31:49;91449.00;;;23.70
7882;BMP180;3986;41.884;23.466;2022-09-29T13:34:29;91432.00;;;24.50
7882;BMP180;3986;41.884;23.466;2022-09-29T13:37:05;91438.00;;;24.90
7882;BMP180;3986;41.884;23.466;2022-09-29T13:39:33;91432.00;;;24.90
7882;BMP180;3986;41.884;23.466;2022-09-29T13:42:24;91441.00;;;25.00
7882;BMP180;3986;41.884;23.466;2022-09-29T13:45:15;91439.00;;;24.50
7882;BMP180;3986;41.884;23.466;2022-09-29T13:47:46;91442.00;;;24.40
7882;BMP180;3986;41.884;23.466;2022-09-29T13:50:38;91443.00;;;23.80
7882;BMP180;3986;41.884;23.466;2022-09-29T13:53:32;91446.00;;;24.00
7882;BMP180;3986;41.884;23.466;2022-09-29T13:56:09;91449.00;;;24.50
7882;BMP180;3986;41.884;23.466;2022-09-29T13:58:56;91448.00;;;24.40
7882;BMP180;3986;41.884;23.466;2022-09-29T14:01:33;91446.00;;;23.90
7882;BMP180;3986;41.884;23.466;2022-09-29T14:07:03;91447.00;;;23.60
7882;BMP180;3986;41.884;23.466;2022-09-29T14:09:33;91444.00;;;23.50
7882;BMP180;3986;41.884;23.466;2022-09-29T14:12:05;91441.00;;;23.10
7882;BMP180;3986;41.884;23.466;2022-09-29T14:14:36;91445.00;;;23.40
7882;BMP180;3986;41.884;23.466;2022-09-29T14:17:09;91429.00;;;23.30
7882;BMP180;3986;41.884;23.466;2022-09-29T14:19:42;91434.00;;;23.20
7882;BMP180;3986;41.884;23.466;2022-09-29T14:22:50;91432.00;;;23.40
7882;BMP180;3986;41.884;23.466;2022-09-29T14:28:24;91434.00;;;22.80
7882;BMP180;3986;41.884;23.466;2022-09-29T14:30:56;91438.00;;;22.50
7882;BMP180;3986;41.884;23.466;2022-09-29T14:33:35;91440.00;;;22.60
7882;BMP180;3986;41.884;23.466;2022-09-29T14:36:05;91437.00;;;22.30
7882;BMP180;3986;41.884;23.466;2022-09-29T14:38:35;91423.00;;;22.10
7882;BMP180;3986;41.884;23.466;2022-09-29T14:41:23;91433.00;;;22.40
7882;BMP180;3986;41.884;23.466;2022-09-29T14:43:53;91404.00;;;22.20
7882;BMP180;3986;41.884;23.466;2022-09-29T14:46:42;91435.00;;;22.00
7882;BMP180;3986;41.884;23.466;2022-09-29T14:49:51;91444.00;;;22.20
7882;BMP180;3986;41.884;23.466;2022-09-29T14:52:48;91452.00;;;21.70
7882;BMP180;3986;41.884;23.466;2022-09-29T14:55:24;91435.00;;;21.70
7882;BMP180;3986;41.884;23.466;2022-09-29T14:58:01;91441.00;;;21.60
7882;BMP180;3986;41.884;23.466;2022-09-29T15:00:36;91410.00;;;21.90
7882;BMP180;3986;41.884;23.466;2022-09-29T15:03:08;91443.00;;;22.40
7882;BMP180;3986;41.884;23.466;2022-09-29T15:05:36;91431.00;;;22.30
7882;BMP180;3986;41.884;23.466;2022-09-29T15:08:28;91457.00;;;21.70
7882;BMP180;3986;41.884;23.466;2022-09-29T15:10:56;91443.00;;;21.90